Stacja Pogody
Warszawa Praga-Północ

Szerokość 52°15'43"N Długość 21°01'22"E Wysokość 110m n.p.m.


173 dzień roku.   Do końca pozostalo 192 dni.   Od wczoraj ubyło 0 min. i 0 sek. dnia.
Wschód Słońca 04:14 Górowanie Słońca 12:37 Zachód Słońca 21:01 rak
Data juliańska 2458292.576 Odległość Słońca 152040889 km Średn. kątowa Słońca 0,315°
Wschód Księżyca 14:49 Zachód Księżyca 01:39 Wiek Księżyca 9 dni Moon
Widoczność Księżyca 66,90% Odległość Księżyca 381579 km Średn. kątowa Księżyca 0,313°
Dzień krótszy od najdłuższego o: 00:00 Długość dnia 16:46 Imieniny Pauliny, Tomasza, Jana



  Aktualizacja: 22-06-2018 01:48:37
TEMPERATURA
Aktualnie: 13.5°C ↓
Temperatura odczuwalna:13.5°C
Punkt rosy7.1°C
WIATR
Średnia prędkość: 14.8km/h ↑
Prędkość w podmuchach:25.6km/h
Przepływ w ciągu doby:276.4km
Kierunek wiatru:180°
CIŚNIENIE
Względne:1012.3hPa
Trend ciśnienia:powolny wzrost
WILGOTNOŚĆ
Wilgotność względna: 66% ↓
Podstawa chmur2789m
DESZCZ
W ostatniej godzinie: 0.0mm
Dzisiaj:0.0mm
W tym miesiącu:16.8mm
METAR
EPWA 212330Z 29008KT 250V320 CAVOK 13/08 Q1011 NOSIG
Ostrzeżenia burzowe
Prognoza 12-to godzinna (prawdopodobieństwo 75%):   Dobra pogoda prognoza





a  a